Hovedside
METAR-TAF:

METAR-TAF

Lufthavner :

Sexton Summit, Oregon, USA

breddegrad: 42-36-01N, lengdegrad: 123-21-51W, høyde over havet: 0 m

Gjeldene værobservasjon

Denne rapporten ble laget for 58 minutter siden, klokken 01:56 UTC
Vind 6 kt fra skiftende retning
Temperatur 19°C
Luftfuktighet 52%
Trykk 1019 hPa
Sikt: 16.1 km
Spredte skyer i en høyde av 6000 ft

METAR: KSXT 270156Z AUTO VRB06KT 10SM SCT060 19/09 A3009 RMK AO2 SLP156 T01890094 $

Tid: 19:54 (02:54 UTC)


TAF: fraværende

Værobservasjoner og værvarsel for over 4000 flyplasser (METAR- og TAF-rapporter).

Tilgjengelige stasjoner er representert av de røde og gule prikkene på kartet.

Hold musepekeren over prikken for å se navnet på stasjonen.

Klikk så for å se værobservasjoner og -varsler.

For å forandre kartet kan du klikke på den grønne knappen med svart kryss for å zoome inn, på den grønne knappen med strek for å zoome ut, eller på de grønne pilene for å se tilstøtende kart.


METAR-TAF: